createdAt,value
2022-09-13T00:01:08.683Z,1004.7
2022-09-13T00:02:17.857Z,1004.7
2022-09-13T00:03:27.038Z,1004.7
2022-09-13T00:04:36.225Z,1004.7
2022-09-13T00:05:45.408Z,1004.7
2022-09-13T00:06:54.562Z,1004.6
2022-09-13T00:08:03.717Z,1004.7
2022-09-13T00:09:12.977Z,1004.7
2022-09-13T00:10:22.062Z,1004.7
2022-09-13T00:11:30.269Z,1004.7
2022-09-13T00:12:39.429Z,1004.7
2022-09-13T00:13:48.628Z,1004.7
2022-09-13T00:14:57.788Z,1004.7
2022-09-13T00:16:06.943Z,1004.7
2022-09-13T00:17:16.110Z,1004.7
2022-09-13T00:18:25.329Z,1004.7
2022-09-13T00:19:34.465Z,1004.6
2022-09-13T00:20:43.636Z,1004.6
2022-09-13T00:21:52.816Z,1004.6
2022-09-13T00:23:01.978Z,1004.6
2022-09-13T00:24:11.157Z,1004.6
2022-09-13T00:25:20.393Z,1004.5
2022-09-13T00:26:29.501Z,1004.6
2022-09-13T00:27:37.682Z,1004.5
2022-09-13T00:28:46.856Z,1004.5
2022-09-13T00:29:56.042Z,1004.5
2022-09-13T00:31:05.209Z,1004.4
2022-09-13T00:32:14.376Z,1004.4
2022-09-13T00:33:23.545Z,1004.5
2022-09-13T00:34:32.716Z,1004.4
2022-09-13T00:35:41.926Z,1004.3
2022-09-13T00:36:51.087Z,1004.3
2022-09-13T00:38:00.240Z,1004.3
2022-09-13T00:39:09.411Z,1004.3
2022-09-13T00:40:18.583Z,1004.3
2022-09-13T00:41:27.764Z,1004.3
2022-09-13T00:42:35.952Z,1004.3
2022-09-13T00:43:45.127Z,1004.3
2022-09-13T00:44:54.286Z,1004.3
2022-09-13T00:46:03.467Z,1004.3
2022-09-13T00:47:11.712Z,1004.2
2022-09-13T00:48:20.834Z,1004.2
2022-09-13T00:49:29.999Z,1004.2
2022-09-13T00:50:39.182Z,1004.2
2022-09-13T00:51:48.353Z,1004.2
2022-09-13T00:52:57.541Z,1004.2
2022-09-13T00:54:06.705Z,1004.2
2022-09-13T00:55:15.871Z,1004.2
2022-09-13T00:56:25.043Z,1004.2
2022-09-13T00:57:34.219Z,1004.1
2022-09-13T00:58:43.423Z,1004.1
2022-09-13T00:59:51.580Z,1004.1
2022-09-13T01:00:59.765Z,1004.1
2022-09-13T01:02:08.944Z,1004.1
2022-09-13T01:03:18.117Z,1004.1
2022-09-13T01:04:27.280Z,1004.1
2022-09-13T01:05:36.461Z,1004.1
2022-09-13T01:06:45.634Z,1004.1
2022-09-13T01:07:54.837Z,1004.1
2022-09-13T01:09:04.025Z,1004
2022-09-13T01:10:13.190Z,1004
2022-09-13T01:11:22.321Z,1004.1
2022-09-13T01:12:31.499Z,1004
2022-09-13T01:13:40.664Z,1004
2022-09-13T01:14:49.840Z,1004
2022-09-13T01:15:58.088Z,1004.1
2022-09-13T01:17:07.207Z,1004.1
2022-09-13T01:18:16.384Z,1004.1
2022-09-13T01:19:25.544Z,1004.1
2022-09-13T01:20:34.717Z,1004.1
2022-09-13T01:21:43.940Z,1004.1
2022-09-13T01:22:53.079Z,1004
2022-09-13T01:24:01.264Z,1004.1
2022-09-13T01:25:09.441Z,1004.1
2022-09-13T01:26:18.624Z,1004
2022-09-13T01:27:27.796Z,1004
2022-09-13T01:28:36.979Z,1004
2022-09-13T01:29:46.149Z,1004.1
2022-09-13T01:30:55.330Z,1004.1
2022-09-13T01:32:04.483Z,1004.1
2022-09-13T01:33:13.690Z,1004.1
2022-09-13T01:34:22.831Z,1004.1
2022-09-13T01:35:32.025Z,1004.1
2022-09-13T01:36:41.186Z,1004.1
2022-09-13T01:37:50.345Z,1004.1
2022-09-13T01:38:59.537Z,1004
2022-09-13T01:40:07.706Z,1004.1
2022-09-13T01:41:16.925Z,1004.1
2022-09-13T01:42:26.064Z,1004
2022-09-13T01:43:35.229Z,1004.1
2022-09-13T01:44:44.412Z,1004.1
2022-09-13T01:45:53.568Z,1004
2022-09-13T01:47:02.740Z,1004
2022-09-13T01:48:11.917Z,1004
2022-09-13T01:49:21.101Z,1004
2022-09-13T01:50:30.265Z,1004
2022-09-13T01:51:39.450Z,1004
2022-09-13T01:52:48.611Z,1004
2022-09-13T01:53:57.785Z,1004
2022-09-13T01:55:05.975Z,1004
2022-09-13T01:56:15.186Z,1004
2022-09-13T01:57:24.329Z,1004
2022-09-13T01:58:33.487Z,1003.9
2022-09-13T01:59:42.664Z,1004
2022-09-13T02:00:51.824Z,1003.9
2022-09-13T02:02:01.000Z,1003.9
2022-09-13T02:03:10.173Z,1003.9
2022-09-13T02:04:19.357Z,1003.8
2022-09-13T02:05:28.524Z,1003.9
2022-09-13T02:06:37.696Z,1003.8
2022-09-13T02:07:46.878Z,1003.9
2022-09-13T02:08:56.039Z,1003.9
2022-09-13T02:10:04.242Z,1003.8
2022-09-13T02:11:13.408Z,1003.9
2022-09-13T02:12:22.617Z,1003.9
2022-09-13T02:13:31.750Z,1003.8
2022-09-13T02:14:40.917Z,1003.9
2022-09-13T02:15:50.092Z,1003.8
2022-09-13T02:16:59.263Z,1003.9
2022-09-13T02:18:08.439Z,1003.9
2022-09-13T02:19:17.615Z,1003.8
2022-09-13T02:20:26.821Z,1003.9
2022-09-13T02:21:35.951Z,1003.8
2022-09-13T02:22:45.167Z,1003.8
2022-09-13T02:23:54.304Z,1003.8
2022-09-13T02:25:02.490Z,1003.8
2022-09-13T02:26:11.656Z,1003.8
2022-09-13T02:27:20.837Z,1003.8
2022-09-13T02:28:30.009Z,1003.8
2022-09-13T02:29:39.187Z,1003.8
2022-09-13T02:30:48.362Z,1003.8
2022-09-13T02:31:57.530Z,1003.8
2022-09-13T02:33:06.698Z,1003.8
2022-09-13T02:34:15.862Z,1003.8
2022-09-13T02:35:25.056Z,1003.8
2022-09-13T02:36:34.218Z,1003.8
2022-09-13T02:37:43.394Z,1003.8
2022-09-13T02:38:52.557Z,1003.9
2022-09-13T02:40:00.750Z,1003.8
2022-09-13T02:41:09.919Z,1003.8
2022-09-13T02:42:19.103Z,1003.8
2022-09-13T02:43:28.275Z,1003.8
2022-09-13T02:44:37.485Z,1003.8
2022-09-13T02:45:46.604Z,1003.8
2022-09-13T02:46:55.788Z,1003.9
2022-09-13T02:48:04.951Z,1003.8
2022-09-13T02:49:14.125Z,1003.9
2022-09-13T02:50:23.319Z,1003.8
2022-09-13T02:51:32.483Z,1003.9
2022-09-13T02:52:41.642Z,1003.9
2022-09-13T02:53:50.825Z,1003.9
2022-09-13T02:54:59.018Z,1003.9
2022-09-13T02:56:08.180Z,1003.8
2022-09-13T02:57:17.360Z,1003.8
2022-09-13T02:58:26.528Z,1003.8
2022-09-13T02:59:35.698Z,1003.8
2022-09-13T03:00:44.880Z,1003.8
2022-09-13T03:01:54.037Z,1003.7
2022-09-13T03:03:03.216Z,1003.8
2022-09-13T03:04:12.384Z,1003.8
2022-09-13T03:05:21.564Z,1003.8
2022-09-13T03:06:30.733Z,1003.8
2022-09-13T03:07:39.948Z,1003.8
2022-09-13T03:08:49.078Z,1003.8
2022-09-13T03:09:57.262Z,1003.8
2022-09-13T03:11:06.441Z,1003.7
2022-09-13T03:12:15.669Z,1003.8
2022-09-13T03:13:24.797Z,1003.8
2022-09-13T03:14:33.964Z,1003.8
2022-09-13T03:15:43.130Z,1003.8
2022-09-13T03:16:52.305Z,1003.8
2022-09-13T03:18:01.479Z,1003.8
2022-09-13T03:19:10.670Z,1003.8
2022-09-13T03:20:19.829Z,1003.8
2022-09-13T03:21:28.989Z,1003.8
2022-09-13T03:22:38.175Z,1003.8
2022-09-13T03:23:47.422Z,1003.8
2022-09-13T03:24:55.538Z,1003.8
2022-09-13T03:26:04.701Z,1003.8
2022-09-13T03:27:13.904Z,1003.8
2022-09-13T03:28:23.053Z,1003.8
2022-09-13T03:29:32.235Z,1003.8
2022-09-13T03:30:41.393Z,1003.7
2022-09-13T03:31:50.561Z,1003.7
2022-09-13T03:32:59.773Z,1003.7
2022-09-13T03:34:08.913Z,1003.7
2022-09-13T03:35:18.094Z,1003.7
2022-09-13T03:36:27.256Z,1003.6
2022-09-13T03:37:36.429Z,1003.6
2022-09-13T03:38:45.608Z,1003.6
2022-09-13T03:39:53.791Z,1003.7
2022-09-13T03:41:03.012Z,1003.6
2022-09-13T03:42:12.147Z,1003.7
2022-09-13T03:43:21.306Z,1003.6
2022-09-13T03:44:30.497Z,1003.7
2022-09-13T03:45:39.656Z,1003.6
2022-09-13T03:46:48.826Z,1003.6
2022-09-13T03:47:57.996Z,1003.6
2022-09-13T03:49:07.174Z,1003.6
2022-09-13T03:50:16.333Z,1003.6
2022-09-13T03:51:25.510Z,1003.6
2022-09-13T03:52:34.689Z,1003.7
2022-09-13T03:53:43.868Z,1003.7
2022-09-13T03:54:52.050Z,1003.7
2022-09-13T03:56:01.231Z,1003.8
2022-09-13T03:57:10.393Z,1003.8
2022-09-13T03:58:19.573Z,1003.8
2022-09-13T03:59:28.749Z,1003.9
2022-09-13T04:00:37.925Z,1003.8
2022-09-13T04:01:47.087Z,1003.9
2022-09-13T04:02:56.272Z,1003.9
2022-09-13T04:04:05.487Z,1004
2022-09-13T04:05:14.645Z,1003.9
2022-09-13T04:06:23.787Z,1004
2022-09-13T04:07:32.949Z,1004
2022-09-13T04:08:42.138Z,1003.9
2022-09-13T04:09:50.387Z,1003.9
2022-09-13T04:10:59.484Z,1004
2022-09-13T04:12:08.693Z,1003.9
2022-09-13T04:13:17.871Z,1004
2022-09-13T04:14:26.998Z,1003.9
2022-09-13T04:15:36.206Z,1003.9
2022-09-13T04:16:45.350Z,1003.9
2022-09-13T04:17:54.526Z,1003.9
2022-09-13T04:19:03.694Z,1004
2022-09-13T04:20:12.936Z,1004
2022-09-13T04:21:22.043Z,1004
2022-09-13T04:22:31.253Z,1004
2022-09-13T04:23:40.379Z,1004
2022-09-13T04:24:48.571Z,1003.9
2022-09-13T04:25:57.751Z,1003.9
2022-09-13T04:27:06.928Z,1004
2022-09-13T04:28:16.170Z,1004
2022-09-13T04:29:25.267Z,1004
2022-09-13T04:30:34.463Z,1004
2022-09-13T04:31:43.661Z,1004
2022-09-13T04:32:52.800Z,1004
2022-09-13T04:35:11.169Z,1003.9
2022-09-13T04:36:20.303Z,1003.8
2022-09-13T04:37:29.476Z,1003.8
2022-09-13T04:38:37.671Z,1003.9
2022-09-13T04:39:46.837Z,1003.9
2022-09-13T04:40:56.020Z,1003.8
2022-09-13T04:42:05.214Z,1003.8
2022-09-13T04:43:14.411Z,1003.7
2022-09-13T04:44:23.525Z,1003.7
2022-09-13T04:45:32.713Z,1003.7
2022-09-13T04:46:41.890Z,1003.7
2022-09-13T04:47:51.066Z,1003.6
2022-09-13T04:49:00.217Z,1003.6
2022-09-13T04:50:09.391Z,1003.7
2022-09-13T04:51:18.582Z,1003.7
2022-09-13T04:52:27.748Z,1003.7
2022-09-13T04:53:35.922Z,1003.7
2022-09-13T04:54:45.091Z,1003.7
2022-09-13T04:55:54.332Z,1003.7
2022-09-13T04:57:03.475Z,1003.7
2022-09-13T04:58:12.635Z,1003.7
2022-09-13T04:59:21.789Z,1003.8
2022-09-13T05:00:31.054Z,1003.8
2022-09-13T05:01:40.134Z,1003.8
2022-09-13T05:02:49.377Z,1003.8
2022-09-13T05:03:58.473Z,1003.8
2022-09-13T05:05:07.670Z,1003.8
2022-09-13T05:06:16.823Z,1003.8
2022-09-13T05:07:25.991Z,1003.8
2022-09-13T05:08:34.211Z,1003.8
2022-09-13T05:09:43.388Z,1003.8
2022-09-13T05:10:52.545Z,1003.8
2022-09-13T05:12:01.757Z,1003.8
2022-09-13T05:13:10.875Z,1003.8
2022-09-13T05:14:20.065Z,1003.8
2022-09-13T05:15:29.283Z,1003.8
2022-09-13T05:16:38.396Z,1003.8
2022-09-13T05:17:47.568Z,1003.7
2022-09-13T05:18:56.737Z,1003.7
2022-09-13T05:20:05.915Z,1003.7
2022-09-13T05:21:15.162Z,1003.7
2022-09-13T05:22:24.253Z,1003.7
2022-09-13T05:23:32.442Z,1003.7
2022-09-13T05:24:41.616Z,1003.8
2022-09-13T05:25:50.794Z,1003.8
2022-09-13T05:26:59.960Z,1003.7
2022-09-13T05:28:09.140Z,1003.8
2022-09-13T05:29:18.309Z,1003.7
2022-09-13T05:30:27.482Z,1003.7
2022-09-13T05:31:36.650Z,1003.8
2022-09-13T05:32:45.836Z,1003.7
2022-09-13T05:33:55.003Z,1003.8
2022-09-13T05:35:04.179Z,1003.8
2022-09-13T05:36:13.360Z,1003.8
2022-09-13T05:37:22.526Z,1003.8
2022-09-13T05:38:30.699Z,1003.8
2022-09-13T05:39:39.904Z,1003.8
2022-09-13T05:40:49.051Z,1003.8
2022-09-13T05:41:58.216Z,1003.8
2022-09-13T05:43:07.398Z,1003.8
2022-09-13T05:44:16.568Z,1003.8
2022-09-13T05:45:25.752Z,1003.8
2022-09-13T05:47:44.091Z,1003.9
2022-09-13T05:48:53.271Z,1003.9
2022-09-13T05:50:02.454Z,1003.8
2022-09-13T05:51:11.649Z,1003.8
2022-09-13T05:52:20.773Z,1003.9
2022-09-13T05:53:28.963Z,1003.9
2022-09-13T05:54:38.148Z,1003.9
2022-09-13T05:55:47.329Z,1003.9
2022-09-13T05:56:56.498Z,1003.9
2022-09-13T05:58:05.682Z,1003.9
2022-09-13T05:59:14.820Z,1003.9
2022-09-13T06:00:24.043Z,1004
2022-09-13T06:01:33.171Z,1004
2022-09-13T06:02:42.379Z,1004
2022-09-13T06:05:00.758Z,1004
2022-09-13T06:06:09.874Z,1004
2022-09-13T06:07:19.041Z,1004
2022-09-13T06:08:27.222Z,1004
2022-09-13T06:09:36.397Z,1004
2022-09-13T06:10:45.572Z,1004
2022-09-13T06:11:54.746Z,1004.1
2022-09-13T06:13:03.921Z,1004
2022-09-13T06:14:13.085Z,1004.1
2022-09-13T06:15:22.297Z,1004.1
2022-09-13T06:16:31.450Z,1004.1
2022-09-13T06:17:40.607Z,1004.1
2022-09-13T06:18:49.782Z,1004.1
2022-09-13T06:19:58.940Z,1004
2022-09-13T06:21:08.126Z,1004
2022-09-13T06:22:17.296Z,1004.1
2022-09-13T06:23:25.484Z,1004
2022-09-13T06:24:34.711Z,1004
2022-09-13T06:25:43.846Z,1004.1
2022-09-13T06:26:53.047Z,1004
2022-09-13T06:28:02.229Z,1004.1
2022-09-13T06:29:11.363Z,1004.1
2022-09-13T06:30:20.524Z,1004
2022-09-13T06:31:29.722Z,1004
2022-09-13T06:32:38.864Z,1004
2022-09-13T06:33:48.038Z,1004
2022-09-13T06:34:57.219Z,1004
2022-09-13T06:36:06.391Z,1004
2022-09-13T06:37:15.555Z,1004
2022-09-13T06:38:23.854Z,1004.1
2022-09-13T06:39:32.923Z,1004
2022-09-13T06:40:42.093Z,1004
2022-09-13T06:41:51.294Z,1004.1
2022-09-13T06:43:00.545Z,1004.1
2022-09-13T06:44:09.643Z,1004.1
2022-09-13T06:45:18.849Z,1004.1
2022-09-13T06:46:27.949Z,1004.1
2022-09-13T06:47:37.126Z,1004
2022-09-13T06:48:46.299Z,1004
2022-09-13T06:49:55.507Z,1004
2022-09-13T06:51:04.685Z,1004
2022-09-13T06:52:14.018Z,1004.1
2022-09-13T06:53:21.998Z,1004.1
2022-09-13T06:54:31.199Z,1004.1
2022-09-13T06:55:40.414Z,1004.1
2022-09-13T06:56:49.544Z,1004.1
2022-09-13T06:57:58.695Z,1004.1
2022-09-13T06:59:07.869Z,1004.1
2022-09-13T07:00:17.037Z,1004.1
2022-09-13T07:01:26.217Z,1004.1
2022-09-13T07:02:35.384Z,1004.1
2022-09-13T07:03:44.562Z,1004.1
2022-09-13T07:04:53.722Z,1004
2022-09-13T07:06:02.925Z,1004.1
2022-09-13T07:07:12.097Z,1004.1
2022-09-13T07:08:20.255Z,1004.1
2022-09-13T07:09:29.420Z,1004.1
2022-09-13T07:10:38.603Z,1004.1
2022-09-13T07:11:47.850Z,1004
2022-09-13T07:12:56.947Z,1004.1
2022-09-13T07:14:06.134Z,1004.1
2022-09-13T07:15:15.303Z,1004
2022-09-13T07:16:24.467Z,1004.1
2022-09-13T07:17:33.638Z,1004
2022-09-13T07:18:42.813Z,1004.1
2022-09-13T07:19:51.982Z,1004.1
2022-09-13T07:21:01.159Z,1004
2022-09-13T07:22:10.327Z,1004.1
2022-09-13T07:23:19.501Z,1004.1
2022-09-13T07:24:27.700Z,1004.1
2022-09-13T07:25:36.855Z,1004
2022-09-13T07:26:46.035Z,1004
2022-09-13T07:27:54.229Z,1004.1
2022-09-13T07:29:02.415Z,1004
2022-09-13T07:30:11.587Z,1004.1
2022-09-13T07:31:20.773Z,1004.1
2022-09-13T07:32:29.922Z,1004.2
2022-09-13T07:33:39.121Z,1004.1
2022-09-13T07:34:48.278Z,1004.1
2022-09-13T07:35:57.441Z,1004.2
2022-09-13T07:37:05.662Z,1004.1
2022-09-13T07:38:13.835Z,1004.2
2022-09-13T07:39:23.016Z,1004.2
2022-09-13T07:40:32.180Z,1004.2
2022-09-13T07:41:41.399Z,1004.2
2022-09-13T07:42:50.513Z,1004.2
2022-09-13T07:43:59.711Z,1004.2
2022-09-13T07:45:08.864Z,1004.2
2022-09-13T07:46:18.040Z,1004.2
2022-09-13T07:48:36.477Z,1004.2
2022-09-13T07:50:54.727Z,1004.3
2022-09-13T07:52:02.963Z,1004.3
2022-09-13T07:53:11.117Z,1004.3
2022-09-13T07:54:20.299Z,1004.3
2022-09-13T07:55:29.461Z,1004.3
2022-09-13T07:56:38.620Z,1004.2
2022-09-13T07:57:47.809Z,1004.3
2022-09-13T07:58:56.981Z,1004.2
2022-09-13T08:00:06.196Z,1004.2
2022-09-13T08:01:15.312Z,1004.3
2022-09-13T08:02:24.513Z,1004.3
2022-09-13T08:03:33.672Z,1004.3
2022-09-13T08:04:41.858Z,1004.4
2022-09-13T08:05:50.039Z,1004.3
2022-09-13T08:06:59.249Z,1004.3
2022-09-13T08:08:08.401Z,1004.4
2022-09-13T08:09:17.601Z,1004.4
2022-09-13T08:10:26.745Z,1004.4
2022-09-13T08:11:35.927Z,1004.4
2022-09-13T08:12:45.132Z,1004.4
2022-09-13T08:13:54.271Z,1004.5
2022-09-13T08:15:03.429Z,1004.5
2022-09-13T08:16:12.597Z,1004.5
2022-09-13T08:17:21.801Z,1004.4
2022-09-13T08:18:30.941Z,1004.5
2022-09-13T08:19:40.105Z,1004.5
2022-09-13T08:20:48.302Z,1004.4
2022-09-13T08:21:57.494Z,1004.5
2022-09-13T08:23:06.658Z,1004.4
2022-09-13T08:24:15.850Z,1004.5
2022-09-13T08:25:24.997Z,1004.5
2022-09-13T08:26:34.210Z,1004.5
2022-09-13T08:27:43.338Z,1004.6
2022-09-13T08:28:52.525Z,1004.6
2022-09-13T08:31:10.869Z,1004.6
2022-09-13T08:32:19.052Z,1004.6
2022-09-13T08:33:28.229Z,1004.6
2022-09-13T08:34:37.386Z,1004.6
2022-09-13T08:35:46.592Z,1004.6
2022-09-13T08:36:55.811Z,1004.6
2022-09-13T08:38:04.963Z,1004.6
2022-09-13T08:39:14.086Z,1004.6
2022-09-13T08:40:23.258Z,1004.6
2022-09-13T08:41:32.435Z,1004.6
2022-09-13T08:42:41.595Z,1004.6
2022-09-13T08:43:50.772Z,1004.6
2022-09-13T08:44:59.960Z,1004.5
2022-09-13T08:46:09.185Z,1004.5
2022-09-13T08:47:17.296Z,1004.6
2022-09-13T08:48:26.479Z,1004.6
2022-09-13T08:49:35.646Z,1004.5
2022-09-13T08:50:44.839Z,1004.6
2022-09-13T08:51:53.989Z,1004.6
2022-09-13T08:53:03.169Z,1004.5
2022-09-13T08:54:12.340Z,1004.5
2022-09-13T08:55:21.549Z,1004.5
2022-09-13T08:56:30.700Z,1004.6
2022-09-13T08:57:39.881Z,1004.6
2022-09-13T08:58:49.038Z,1004.5
2022-09-13T08:59:58.197Z,1004.4
2022-09-13T09:01:07.386Z,1004.4
2022-09-13T09:02:16.552Z,1004.5
2022-09-13T09:03:24.734Z,1004.4
2022-09-13T09:04:33.913Z,1004.5
2022-09-13T09:05:43.134Z,1004.5
2022-09-13T09:06:52.253Z,1004.5
2022-09-13T09:08:01.521Z,1004.5
2022-09-13T09:09:10.638Z,1004.4
2022-09-13T09:10:19.825Z,1004.4
2022-09-13T09:11:28.934Z,1004.4
2022-09-13T09:12:38.110Z,1004.5
2022-09-13T09:13:47.282Z,1004.4
2022-09-13T09:14:56.462Z,1004.4
2022-09-13T09:16:05.703Z,1004.4
2022-09-13T09:17:14.888Z,1004.4
2022-09-13T09:18:23.015Z,1004.5
2022-09-13T09:19:32.213Z,1004.4
2022-09-13T09:20:41.353Z,1004.5
2022-09-13T09:21:50.514Z,1004.4
2022-09-13T09:22:59.693Z,1004.5
2022-09-13T09:24:08.900Z,1004.5
2022-09-13T09:25:18.157Z,1004.5
2022-09-13T09:26:27.195Z,1004.5
2022-09-13T09:27:36.496Z,1004.4
2022-09-13T09:28:45.625Z,1004.5
2022-09-13T09:29:54.731Z,1004.5
2022-09-13T09:31:03.968Z,1004.4
2022-09-13T09:33:22.292Z,1004.4
2022-09-13T09:34:30.495Z,1004.4
2022-09-13T09:35:39.623Z,1004.5
2022-09-13T09:36:47.881Z,1004.5
2022-09-13T09:37:55.996Z,1004.5
2022-09-13T09:39:05.150Z,1004.5
2022-09-13T09:40:14.436Z,1004.5
2022-09-13T09:41:22.646Z,1004.5
2022-09-13T09:42:30.823Z,1004.5
2022-09-13T09:43:39.931Z,1004.4
2022-09-13T09:44:49.173Z,1004.4
2022-09-13T09:45:58.283Z,1004.5
2022-09-13T09:47:07.507Z,1004.5
2022-09-13T09:48:16.566Z,1004.4
2022-09-13T09:49:25.834Z,1004.5
2022-09-13T09:50:34.914Z,1004.5
2022-09-13T09:51:44.167Z,1004.6
2022-09-13T09:52:53.315Z,1004.6
2022-09-13T09:54:02.466Z,1004.5
2022-09-13T09:55:11.621Z,1004.6
2022-09-13T09:56:20.791Z,1004.6
2022-09-13T09:57:29.029Z,1004.5
2022-09-13T09:58:38.144Z,1004.5
2022-09-13T09:59:47.319Z,1004.5
2022-09-13T10:00:56.476Z,1004.5
2022-09-13T10:02:05.661Z,1004.5
2022-09-13T10:03:14.903Z,1004.5
2022-09-13T10:04:23.992Z,1004.5
2022-09-13T10:05:33.218Z,1004.5
2022-09-13T10:06:42.371Z,1004.5
2022-09-13T10:09:00.747Z,1004.5
2022-09-13T10:11:19.039Z,1004.5
2022-09-13T10:12:27.224Z,1004.5
2022-09-13T10:13:36.392Z,1004.4
2022-09-13T10:14:45.610Z,1004.4
2022-09-13T10:15:54.821Z,1004.4
2022-09-13T10:17:03.918Z,1004.4
2022-09-13T10:18:13.078Z,1004.4
2022-09-13T10:19:22.256Z,1004.4
2022-09-13T10:20:31.418Z,1004.4
2022-09-13T10:21:40.637Z,1004.4
2022-09-13T10:22:49.793Z,1004.4
2022-09-13T10:25:08.104Z,1004.3
2022-09-13T10:26:16.356Z,1004.4
2022-09-13T10:27:25.488Z,1004.3
2022-09-13T10:28:34.650Z,1004.4
2022-09-13T10:29:42.843Z,1004.3
2022-09-13T10:30:52.022Z,1004.4
2022-09-13T10:32:01.184Z,1004.4
2022-09-13T10:33:10.354Z,1004.4
2022-09-13T10:34:19.533Z,1004.3
2022-09-13T10:35:28.702Z,1004.3
2022-09-13T10:36:37.876Z,1004.4
2022-09-13T10:37:47.050Z,1004.4
2022-09-13T10:38:56.240Z,1004.3
2022-09-13T10:40:04.408Z,1004.3
2022-09-13T10:41:12.621Z,1004.3
2022-09-13T10:42:21.775Z,1004.3
2022-09-13T10:43:30.945Z,1004.3
2022-09-13T10:44:40.155Z,1004.3
2022-09-13T10:45:49.288Z,1004.3
2022-09-13T10:46:58.455Z,1004.3
2022-09-13T10:49:16.803Z,1004.4
2022-09-13T10:50:25.980Z,1004.4
2022-09-13T10:51:35.162Z,1004.4
2022-09-13T10:52:44.323Z,1004.4
2022-09-13T10:53:53.610Z,1004.4
2022-09-13T10:55:02.667Z,1004.4
2022-09-13T10:56:10.861Z,1004.4
2022-09-13T10:57:20.030Z,1004.4
2022-09-13T10:58:29.202Z,1004.5
2022-09-13T10:59:38.383Z,1004.4
2022-09-13T11:00:47.548Z,1004.4
2022-09-13T11:01:56.727Z,1004.4
2022-09-13T11:03:05.899Z,1004.4
2022-09-13T11:04:15.067Z,1004.4
2022-09-13T11:05:24.238Z,1004.3
2022-09-13T11:06:33.427Z,1004.3
2022-09-13T11:07:42.579Z,1004.4
2022-09-13T11:08:51.803Z,1004.3
2022-09-13T11:10:00.922Z,1004.3
2022-09-13T11:11:09.120Z,1004.4
2022-09-13T11:12:18.300Z,1004.4
2022-09-13T11:13:27.457Z,1004.4
2022-09-13T11:14:36.638Z,1004.4
2022-09-13T11:15:45.807Z,1004.4
2022-09-13T11:16:54.969Z,1004.3
2022-09-13T11:18:04.143Z,1004.4
2022-09-13T11:19:13.324Z,1004.4
2022-09-13T11:20:22.494Z,1004.4
2022-09-13T11:21:31.659Z,1004.4
2022-09-13T11:22:40.882Z,1004.3
2022-09-13T11:23:50.024Z,1004.4
2022-09-13T11:24:59.189Z,1004.4
2022-09-13T11:26:07.370Z,1004.4
2022-09-13T11:27:16.546Z,1004.4
2022-09-13T11:28:25.720Z,1004.4
2022-09-13T11:29:34.883Z,1004.4
2022-09-13T11:30:44.071Z,1004.4
2022-09-13T11:31:53.232Z,1004.4
2022-09-13T11:33:02.411Z,1004.3
2022-09-13T11:34:11.613Z,1004.3
2022-09-13T11:35:20.758Z,1004.4
2022-09-13T11:36:29.924Z,1004.4
2022-09-13T11:37:39.097Z,1004.4
2022-09-13T11:38:48.265Z,1004.3
2022-09-13T11:39:57.445Z,1004.3
2022-09-13T11:41:05.720Z,1004.3
2022-09-13T11:42:14.801Z,1004.3
2022-09-13T11:43:23.967Z,1004.2
2022-09-13T11:44:33.151Z,1004.2
2022-09-13T11:45:42.324Z,1004.2
2022-09-13T11:46:51.492Z,1004.2
2022-09-13T11:48:00.666Z,1004.3
2022-09-13T11:49:09.833Z,1004.2
2022-09-13T11:50:19.006Z,1004.2
2022-09-13T11:51:28.201Z,1004.2
2022-09-13T11:52:37.361Z,1004.3
2022-09-13T11:53:46.521Z,1004.3
2022-09-13T11:54:55.702Z,1004.3
2022-09-13T11:56:03.895Z,1004.3
2022-09-13T11:57:13.113Z,1004.3
2022-09-13T11:58:22.284Z,1004.2
2022-09-13T11:59:31.421Z,1004.3
2022-09-13T12:00:40.577Z,1004.3
2022-09-13T12:01:49.751Z,1004.3
2022-09-13T12:02:58.946Z,1004.2
2022-09-13T12:04:08.102Z,1004.2
2022-09-13T12:05:17.265Z,1004.2
2022-09-13T12:06:26.444Z,1004.2
2022-09-13T12:07:35.621Z,1004.2
2022-09-13T12:08:44.795Z,1004.2
2022-09-13T12:09:53.957Z,1004.1
2022-09-13T12:11:02.152Z,1004.1
2022-09-13T12:12:11.333Z,1004.1
2022-09-13T12:13:20.505Z,1004.2
2022-09-13T12:15:38.870Z,1004.1
2022-09-13T12:16:48.014Z,1004.1
2022-09-13T12:17:57.198Z,1004.1
2022-09-13T12:19:06.372Z,1004.1
2022-09-13T12:20:15.540Z,1004.1
2022-09-13T12:21:24.721Z,1004
2022-09-13T12:22:33.888Z,1004.1
2022-09-13T12:23:42.073Z,1004
2022-09-13T12:24:51.265Z,1004
2022-09-13T12:26:00.422Z,1004
2022-09-13T12:27:09.586Z,1004
2022-09-13T12:28:18.763Z,1004
2022-09-13T12:29:27.967Z,1003.9
2022-09-13T12:30:37.109Z,1004
2022-09-13T12:31:46.292Z,1004
2022-09-13T12:32:55.461Z,1004
2022-09-13T12:34:04.640Z,1003.9
2022-09-13T12:35:13.829Z,1003.9
2022-09-13T12:36:22.962Z,1003.9
2022-09-13T12:37:32.149Z,1003.9
2022-09-13T12:38:41.309Z,1003.9
2022-09-13T12:39:49.499Z,1003.9
2022-09-13T12:40:58.684Z,1003.9
2022-09-13T12:42:07.860Z,1003.8
2022-09-13T12:43:17.021Z,1003.8
2022-09-13T12:44:26.191Z,1003.9
2022-09-13T12:45:35.362Z,1003.9
2022-09-13T12:46:44.552Z,1003.8
2022-09-13T12:47:53.796Z,1003.8
2022-09-13T12:49:02.872Z,1003.8
2022-09-13T12:50:12.147Z,1003.8
2022-09-13T12:51:21.213Z,1003.9
2022-09-13T12:52:30.461Z,1003.8
2022-09-13T12:53:39.636Z,1003.8
2022-09-13T12:54:47.786Z,1003.8
2022-09-13T12:55:57.031Z,1003.8
2022-09-13T12:57:06.218Z,1003.8
2022-09-13T12:58:15.318Z,1003.7
2022-09-13T12:59:24.570Z,1003.8
2022-09-13T13:00:33.617Z,1003.8
2022-09-13T13:01:42.817Z,1003.8
2022-09-13T13:02:51.960Z,1003.8
2022-09-13T13:04:01.183Z,1003.7
2022-09-13T13:05:10.413Z,1003.7
2022-09-13T13:06:19.484Z,1003.7
2022-09-13T13:07:28.758Z,1003.7
2022-09-13T13:08:37.878Z,1003.6
2022-09-13T13:09:46.102Z,1003.7
2022-09-13T13:10:55.192Z,1003.7
2022-09-13T13:12:03.417Z,1003.7
2022-09-13T13:13:11.576Z,1003.7
2022-09-13T13:14:20.752Z,1003.6
2022-09-13T13:15:28.943Z,1003.7
2022-09-13T13:17:47.320Z,1003.7
2022-09-13T13:18:55.469Z,1003.6
2022-09-13T13:20:04.644Z,1003.7
2022-09-13T13:21:13.819Z,1003.6
2022-09-13T13:22:22.994Z,1003.6
2022-09-13T13:23:32.174Z,1003.7
2022-09-13T13:24:41.362Z,1003.7
2022-09-13T13:25:50.506Z,1003.8
2022-09-13T13:26:59.697Z,1003.8
2022-09-13T13:28:08.869Z,1003.8
2022-09-13T13:29:18.087Z,1003.8
2022-09-13T13:30:27.200Z,1003.8
2022-09-13T13:31:36.367Z,1003.8
2022-09-13T13:32:45.589Z,1003.8
2022-09-13T13:33:53.731Z,1003.8
2022-09-13T13:35:02.930Z,1003.7
2022-09-13T13:36:12.103Z,1003.7
2022-09-13T13:37:21.250Z,1003.7
2022-09-13T13:38:30.419Z,1003.8
2022-09-13T13:39:39.600Z,1003.7
2022-09-13T13:40:48.802Z,1003.8
2022-09-13T13:41:57.948Z,1003.8
2022-09-13T13:43:07.117Z,1003.8
2022-09-13T13:44:16.302Z,1003.7
2022-09-13T13:45:25.459Z,1003.8
2022-09-13T13:46:34.700Z,1003.8
2022-09-13T13:47:43.809Z,1003.8
2022-09-13T13:48:52.130Z,1003.8
2022-09-13T13:50:01.281Z,1003.7
2022-09-13T13:51:10.455Z,1003.8
2022-09-13T13:52:19.594Z,1003.8
2022-09-13T13:53:28.751Z,1003.8
2022-09-13T13:54:37.939Z,1003.8
2022-09-13T13:55:47.031Z,1003.7
2022-09-13T13:56:55.265Z,1003.7
2022-09-13T13:58:03.410Z,1003.7
2022-09-13T13:59:12.661Z,1003.8
2022-09-13T14:00:21.761Z,1003.6
2022-09-13T14:01:30.916Z,1003.6
2022-09-13T14:02:40.190Z,1003.7
2022-09-13T14:03:49.299Z,1003.6
2022-09-13T14:04:58.474Z,1003.6
2022-09-13T14:06:07.620Z,1003.5
2022-09-13T14:07:16.785Z,1003.5
2022-09-13T14:08:26.006Z,1003.5
2022-09-13T14:09:35.175Z,1003.4
2022-09-13T14:10:44.317Z,1003.6
2022-09-13T14:11:53.475Z,1003.4
2022-09-13T14:13:01.748Z,1003.4
2022-09-13T14:14:10.840Z,1003.4
2022-09-13T14:15:20.050Z,1003.4
2022-09-13T14:16:29.183Z,1003.5
2022-09-13T14:17:38.355Z,1003.4
2022-09-13T14:18:47.525Z,1003.4
2022-09-13T14:19:56.781Z,1003.4
2022-09-13T14:21:05.903Z,1003.4
2022-09-13T14:22:15.092Z,1003.4
2022-09-13T14:23:24.242Z,1003.5
2022-09-13T14:24:32.399Z,1003.4
2022-09-13T14:25:40.661Z,1003.4
2022-09-13T14:26:49.835Z,1003.4
2022-09-13T14:27:58.943Z,1003.4
2022-09-13T14:29:08.111Z,1003.3
2022-09-13T14:30:16.389Z,1003.4
2022-09-13T14:31:24.503Z,1003.3
2022-09-13T14:32:33.688Z,1003.3
2022-09-13T14:33:42.957Z,1003.3
2022-09-13T14:34:52.031Z,1003.3
2022-09-13T14:36:01.192Z,1003.3
2022-09-13T14:37:10.378Z,1003.3
2022-09-13T14:38:19.550Z,1003.2
2022-09-13T14:39:28.718Z,1003.3
2022-09-13T14:40:37.914Z,1003.3
2022-09-13T14:41:47.067Z,1003.3
2022-09-13T14:42:56.223Z,1003.2